NZAA/AKL METAR and TAF weather

Enter ICAO airport designator
Station Type Date Time Source
NZAA METAR 2018/12/13 22:00 UTC NOAA

NZAA 132200Z AUTO 03010KT 350V070 9999 NCD 23/13 Q1017 NOSIG


Station Type Date Time Source
NZAA Decoded METAR 2018/12/13 22:00 UTC NOAA

Auckland Airport, New Zealand (NZAA) 37-01S 174-48E 6M
Dec 13, 2018 - 05:00 PM EST / 2018.12.13 2200 UTC
Wind: from the NNE (030 degrees) at 12 MPH (10 KT) (direction variable):0
Visibility: greater than 7 mile(s):0
Temperature: 73 F (23 C)
Dew Point: 55 F (13 C)
Relative Humidity: 53%
Pressure (altimeter): 30.03 in. Hg (1017 hPa)
ob: NZAA 132200Z AUTO 03010KT 350V070 9999 NCD 23/13 Q1017 NOSIG
cycle: 22

Station Type Date Time Source
NZAA TAF 2018/12/13 18:12 UTC NOAA

TAF NZAA 131708Z 1318/1418 04005KT 9999 FEW040
FM140000 34010KT 9999 -SHRA SCT030 BKN050
TEMPO 1402/1408 5000 SHRA FEW030TCU PROB40
TEMPO 1403/1406 2500 TSRAGS SCT030CB
BECMG 1404/1406 04005KT
TEMPO 1410/1418 5000 SHRA FEW030TCU


Example: see airport list